createdAt,value
2019-02-06T00:00:26.895Z,1008.59
2019-02-06T00:01:25.410Z,1008.62
2019-02-06T00:02:25.436Z,1008.62
2019-02-06T00:03:25.458Z,1008.66
2019-02-06T00:04:25.478Z,1008.59
2019-02-06T00:05:25.500Z,1008.65
2019-02-06T00:06:25.524Z,1008.69
2019-02-06T00:07:25.548Z,1008.66
2019-02-06T00:08:25.570Z,1008.67
2019-02-06T00:09:25.594Z,1008.64
2019-02-06T00:10:25.615Z,1008.64
2019-02-06T00:11:25.636Z,1008.63
2019-02-06T00:12:25.684Z,1008.66
2019-02-06T00:13:25.682Z,1008.65
2019-02-06T00:14:25.751Z,1008.62
2019-02-06T00:15:25.727Z,1008.63
2019-02-06T00:16:25.777Z,1008.67
2019-02-06T00:17:25.783Z,1008.66
2019-02-06T00:18:25.816Z,1008.67
2019-02-06T00:19:25.837Z,1008.66
2019-02-06T00:20:25.839Z,1008.66
2019-02-06T00:21:25.861Z,1008.69
2019-02-06T00:22:25.952Z,1008.68
2019-02-06T00:23:25.906Z,1008.70
2019-02-06T00:24:25.929Z,1008.64
2019-02-06T00:25:25.953Z,1008.70
2019-02-06T00:26:25.973Z,1008.71
2019-02-06T00:27:25.996Z,1008.72
2019-02-06T00:28:26.018Z,1008.71
2019-02-06T00:29:26.042Z,1008.67
2019-02-06T00:30:26.066Z,1008.70
2019-02-06T00:31:26.085Z,1008.69
2019-02-06T00:32:26.108Z,1008.65
2019-02-06T00:33:26.132Z,1008.69
2019-02-06T00:34:26.155Z,1008.67
2019-02-06T00:35:26.290Z,1008.61
2019-02-06T00:36:26.203Z,1008.67
2019-02-06T00:37:26.219Z,1008.65
2019-02-06T00:38:26.246Z,1008.64
2019-02-06T00:39:26.264Z,1008.67
2019-02-06T00:40:26.288Z,1008.69
2019-02-06T00:41:26.309Z,1008.65
2019-02-06T00:42:26.331Z,1008.68
2019-02-06T00:43:26.355Z,1008.68
2019-02-06T00:44:26.928Z,1008.68
2019-02-06T00:45:26.398Z,1008.68
2019-02-06T00:46:26.421Z,1008.70
2019-02-06T00:47:26.449Z,1008.64
2019-02-06T00:48:26.464Z,1008.64
2019-02-06T00:49:26.487Z,1008.70
2019-02-06T00:50:26.523Z,1008.64
2019-02-06T00:51:26.534Z,1008.68
2019-02-06T00:52:26.553Z,1008.62
2019-02-06T00:53:26.580Z,1008.63
2019-02-06T00:54:26.600Z,1008.64
2019-02-06T00:55:26.621Z,1008.62
2019-02-06T00:56:26.642Z,1008.63
2019-02-06T00:57:26.665Z,1008.61
2019-02-06T00:58:26.687Z,1008.65
2019-02-06T00:59:26.710Z,1008.71
2019-02-06T01:00:26.732Z,1008.68
2019-02-06T01:01:26.755Z,1008.72
2019-02-06T01:02:26.777Z,1008.72
2019-02-06T01:03:26.800Z,1008.69
2019-02-06T01:04:26.822Z,1008.71
2019-02-06T01:05:37.585Z,1008.72
2019-02-06T01:06:26.866Z,1008.69
2019-02-06T01:07:26.889Z,1008.66
2019-02-06T01:08:26.911Z,1008.73
2019-02-06T01:09:26.932Z,1008.69
2019-02-06T01:10:26.956Z,1008.70
2019-02-06T01:11:26.983Z,1008.70
2019-02-06T01:12:26.999Z,1008.67
2019-02-06T01:13:27.021Z,1008.64
2019-02-06T01:14:27.043Z,1008.64
2019-02-06T01:15:27.068Z,1008.62
2019-02-06T01:16:27.087Z,1008.61
2019-02-06T01:17:27.111Z,1008.61
2019-02-06T01:18:27.133Z,1008.62
2019-02-06T01:19:27.156Z,1008.63
2019-02-06T01:20:27.176Z,1008.67
2019-02-06T01:21:27.199Z,1008.66
2019-02-06T01:22:27.222Z,1008.66
2019-02-06T01:23:27.243Z,1008.65
2019-02-06T01:24:27.269Z,1008.64
2019-02-06T01:25:27.286Z,1008.69
2019-02-06T01:26:27.311Z,1008.66
2019-02-06T01:27:27.332Z,1008.72
2019-02-06T01:28:27.353Z,1008.72
2019-02-06T01:29:27.376Z,1008.74
2019-02-06T01:30:27.463Z,1008.71
2019-02-06T01:31:27.420Z,1008.76
2019-02-06T01:32:27.449Z,1008.75
2019-02-06T01:33:27.464Z,1008.78
2019-02-06T01:34:27.487Z,1008.75
2019-02-06T01:35:27.508Z,1008.77
2019-02-06T01:36:27.529Z,1008.70
2019-02-06T01:37:27.555Z,1008.76
2019-02-06T01:38:27.573Z,1008.76
2019-02-06T01:39:27.596Z,1008.68
2019-02-06T01:40:27.618Z,1008.72
2019-02-06T01:41:27.639Z,1008.71
2019-02-06T01:42:27.662Z,1008.79
2019-02-06T01:43:27.688Z,1008.75
2019-02-06T01:44:27.707Z,1008.66
2019-02-06T01:45:27.729Z,1008.71
2019-02-06T01:46:27.751Z,1008.67
2019-02-06T01:47:27.773Z,1008.69
2019-02-06T01:48:27.794Z,1008.68
2019-02-06T01:49:27.820Z,1008.69
2019-02-06T01:50:27.840Z,1008.68
2019-02-06T01:51:27.865Z,1008.69
2019-02-06T01:52:27.882Z,1008.67
2019-02-06T01:53:27.906Z,1008.70
2019-02-06T01:54:27.928Z,1008.69
2019-02-06T01:55:27.950Z,1008.65
2019-02-06T01:56:27.970Z,1008.68
2019-02-06T01:57:27.993Z,1008.69
2019-02-06T01:58:28.015Z,1008.67
2019-02-06T01:59:28.040Z,1008.66
2019-02-06T02:00:28.061Z,1008.67
2019-02-06T02:01:28.141Z,1008.70
2019-02-06T02:02:28.102Z,1008.65
2019-02-06T02:03:28.126Z,1008.66
2019-02-06T02:04:28.147Z,1008.66
2019-02-06T02:05:28.170Z,1008.61
2019-02-06T02:06:28.191Z,1008.65
2019-02-06T02:07:28.214Z,1008.64
2019-02-06T02:08:28.235Z,1008.59
2019-02-06T02:09:28.257Z,1008.64
2019-02-06T02:10:29.281Z,1008.68
2019-02-06T02:11:28.301Z,1008.70
2019-02-06T02:12:28.323Z,1008.73
2019-02-06T02:13:28.348Z,1008.72
2019-02-06T02:14:28.369Z,1008.68
2019-02-06T02:15:28.391Z,1008.67
2019-02-06T02:16:28.411Z,1008.65
2019-02-06T02:17:28.435Z,1008.66
2019-02-06T02:18:28.457Z,1008.64
2019-02-06T02:19:28.476Z,1008.67
2019-02-06T02:20:28.499Z,1008.60
2019-02-06T02:21:28.523Z,1008.61
2019-02-06T02:22:28.544Z,1008.59
2019-02-06T02:23:28.566Z,1008.62
2019-02-06T02:24:28.589Z,1008.62
2019-02-06T02:25:28.608Z,1008.59
2019-02-06T02:26:28.632Z,1008.61
2019-02-06T02:27:28.655Z,1008.62
2019-02-06T02:28:28.676Z,1008.59
2019-02-06T02:29:28.698Z,1008.65
2019-02-06T02:30:28.723Z,1008.64
2019-02-06T02:31:28.742Z,1008.65
2019-02-06T02:32:28.763Z,1008.62
2019-02-06T02:33:28.787Z,1008.63
2019-02-06T02:34:28.809Z,1008.66
2019-02-06T02:35:28.834Z,1008.62
2019-02-06T02:36:28.855Z,1008.61
2019-02-06T02:37:28.873Z,1008.56
2019-02-06T02:38:28.899Z,1008.53
2019-02-06T02:39:28.920Z,1008.54
2019-02-06T02:40:28.942Z,1008.58
2019-02-06T02:41:28.962Z,1008.60
2019-02-06T02:42:28.984Z,1008.53
2019-02-06T02:43:29.008Z,1008.55
2019-02-06T02:44:29.027Z,1008.48
2019-02-06T02:45:29.049Z,1008.48
2019-02-06T02:46:29.073Z,1008.52
2019-02-06T02:47:29.094Z,1008.44
2019-02-06T02:48:29.116Z,1008.45
2019-02-06T02:49:29.138Z,1008.47
2019-02-06T02:50:29.160Z,1008.42
2019-02-06T02:51:29.183Z,1008.43
2019-02-06T02:52:29.207Z,1008.44
2019-02-06T02:53:29.229Z,1008.43
2019-02-06T02:54:29.248Z,1008.40
2019-02-06T02:55:29.270Z,1008.41
2019-02-06T02:56:29.292Z,1008.41
2019-02-06T02:57:29.314Z,1008.44
2019-02-06T02:58:29.338Z,1008.37
2019-02-06T02:59:29.363Z,1008.40
2019-02-06T03:00:29.379Z,1008.33
2019-02-06T03:01:29.404Z,1008.39
2019-02-06T03:02:29.423Z,1008.41
2019-02-06T03:03:29.445Z,1008.39
2019-02-06T03:04:29.466Z,1008.36
2019-02-06T03:05:29.491Z,1008.38
2019-02-06T03:06:29.511Z,1008.33
2019-02-06T03:07:29.586Z,1008.38
2019-02-06T03:08:29.554Z,1008.32
2019-02-06T03:09:29.575Z,1008.30
2019-02-06T03:10:29.599Z,1008.37
2019-02-06T03:11:29.621Z,1008.35
2019-02-06T03:12:29.641Z,1008.36
2019-02-06T03:13:29.664Z,1008.34
2019-02-06T03:14:29.685Z,1008.33
2019-02-06T03:15:29.707Z,1008.38
2019-02-06T03:16:29.730Z,1008.32
2019-02-06T03:17:29.750Z,1008.37
2019-02-06T03:18:29.777Z,1008.32
2019-02-06T03:19:29.796Z,1008.32
2019-02-06T03:20:29.818Z,1008.36
2019-02-06T03:21:29.840Z,1008.33
2019-02-06T03:22:32.912Z,1008.32
2019-02-06T03:23:29.881Z,1008.34
2019-02-06T03:24:29.903Z,1008.31
2019-02-06T03:25:29.925Z,1008.30
2019-02-06T03:26:29.946Z,1008.35
2019-02-06T03:27:29.968Z,1008.34
2019-02-06T03:28:29.990Z,1008.35
2019-02-06T03:29:30.070Z,1008.34
2019-02-06T03:30:30.035Z,1008.29
2019-02-06T03:31:30.057Z,1008.29
2019-02-06T03:32:30.078Z,1008.33
2019-02-06T03:33:30.102Z,1008.34
2019-02-06T03:34:30.122Z,1008.30
2019-02-06T03:35:30.141Z,1008.32
2019-02-06T03:36:39.815Z,1008.28
2019-02-06T03:37:30.187Z,1008.27
2019-02-06T03:38:30.207Z,1008.31
2019-02-06T03:39:30.229Z,1008.29
2019-02-06T03:40:30.250Z,1008.29
2019-02-06T03:41:30.275Z,1008.30
2019-02-06T03:42:30.295Z,1008.27
2019-02-06T03:43:30.318Z,1008.33
2019-02-06T03:44:30.340Z,1008.28
2019-02-06T03:45:30.360Z,1008.28
2019-02-06T03:46:30.381Z,1008.29
2019-02-06T03:47:30.403Z,1008.26
2019-02-06T03:48:30.423Z,1008.30
2019-02-06T03:49:30.445Z,1008.27
2019-02-06T03:50:30.469Z,1008.29
2019-02-06T03:51:30.492Z,1008.31
2019-02-06T03:52:30.515Z,1008.32
2019-02-06T03:53:30.533Z,1008.33
2019-02-06T03:54:30.555Z,1008.28
2019-02-06T03:55:30.580Z,1008.26
2019-02-06T03:56:30.597Z,1008.29
2019-02-06T03:57:30.632Z,1008.30
2019-02-06T03:58:30.641Z,1008.32
2019-02-06T03:59:30.663Z,1008.31
2019-02-06T04:00:30.684Z,1008.33
2019-02-06T04:01:30.706Z,1008.34
2019-02-06T04:02:30.729Z,1008.30
2019-02-06T04:03:30.753Z,1008.28
2019-02-06T04:04:30.772Z,1008.31
2019-02-06T04:05:30.793Z,1008.27
2019-02-06T04:06:30.815Z,1008.27
2019-02-06T04:07:30.837Z,1008.27
2019-02-06T04:08:30.863Z,1008.25
2019-02-06T04:09:30.879Z,1008.27
2019-02-06T04:10:30.901Z,1008.24
2019-02-06T04:11:30.923Z,1008.21
2019-02-06T04:12:30.944Z,1008.21
2019-02-06T04:13:30.965Z,1008.28
2019-02-06T04:14:30.987Z,1008.25
2019-02-06T04:15:31.010Z,1008.28
2019-02-06T04:16:31.030Z,1008.36
2019-02-06T04:17:31.059Z,1008.36
2019-02-06T04:18:31.076Z,1008.31
2019-02-06T04:19:31.097Z,1008.34
2019-02-06T04:20:31.115Z,1008.32
2019-02-06T04:21:31.139Z,1008.31
2019-02-06T04:22:31.170Z,1008.34
2019-02-06T04:23:31.183Z,1008.30
2019-02-06T04:24:31.202Z,1008.31
2019-02-06T04:25:31.228Z,1008.30
2019-02-06T04:26:31.247Z,1008.31
2019-02-06T04:27:31.269Z,1008.30
2019-02-06T04:28:31.289Z,1008.28
2019-02-06T04:29:31.311Z,1008.29
2019-02-06T04:30:31.334Z,1008.28
2019-02-06T04:31:31.355Z,1008.28
2019-02-06T04:32:31.376Z,1008.20
2019-02-06T04:33:31.404Z,1008.20
2019-02-06T04:34:31.420Z,1008.19
2019-02-06T04:35:31.441Z,1008.19
2019-02-06T04:36:31.460Z,1008.20
2019-02-06T04:37:31.484Z,1008.17
2019-02-06T04:38:31.506Z,1008.20
2019-02-06T04:39:31.532Z,1008.15
2019-02-06T04:40:31.552Z,1008.17
2019-02-06T04:41:31.569Z,1008.18
2019-02-06T04:42:31.590Z,1008.21
2019-02-06T04:43:31.613Z,1008.20
2019-02-06T04:44:31.633Z,1008.24
2019-02-06T04:45:31.655Z,1008.22
2019-02-06T04:46:31.677Z,1008.19
2019-02-06T04:47:31.698Z,1008.20
2019-02-06T04:48:32.321Z,1008.22
2019-02-06T04:49:31.740Z,1008.20
2019-02-06T04:50:31.763Z,1008.23
2019-02-06T04:51:31.786Z,1008.20
2019-02-06T04:52:31.807Z,1008.16
2019-02-06T04:53:31.827Z,1008.18
2019-02-06T04:54:31.849Z,1008.23
2019-02-06T04:55:31.870Z,1008.20
2019-02-06T04:56:31.892Z,1008.27
2019-02-06T04:57:31.934Z,1008.26
2019-02-06T04:58:31.934Z,1008.28
2019-02-06T04:59:31.956Z,1008.32
2019-02-06T05:00:31.977Z,1008.30
2019-02-06T05:01:31.998Z,1008.33
2019-02-06T05:02:32.022Z,1008.33
2019-02-06T05:03:32.042Z,1008.29
2019-02-06T05:04:32.064Z,1008.30
2019-02-06T05:05:32.086Z,1008.24
2019-02-06T05:06:32.107Z,1008.28
2019-02-06T05:07:32.129Z,1008.23
2019-02-06T05:08:32.150Z,1008.26
2019-02-06T05:09:32.173Z,1008.18
2019-02-06T05:10:32.193Z,1008.22
2019-02-06T05:11:32.251Z,1008.24
2019-02-06T05:12:32.236Z,1008.20
2019-02-06T05:13:32.258Z,1008.23
2019-02-06T05:14:32.278Z,1008.24
2019-02-06T05:15:32.301Z,1008.26
2019-02-06T05:16:32.321Z,1008.27
2019-02-06T05:17:32.343Z,1008.24
2019-02-06T05:18:32.368Z,1008.26
2019-02-06T05:19:32.390Z,1008.24
2019-02-06T05:20:32.413Z,1008.25
2019-02-06T05:21:32.427Z,1008.26
2019-02-06T05:22:32.484Z,1008.23
2019-02-06T05:23:32.473Z,1008.22
2019-02-06T05:24:32.495Z,1008.19
2019-02-06T05:25:32.513Z,1008.22
2019-02-06T05:26:32.537Z,1008.20
2019-02-06T05:27:32.558Z,1008.20
2019-02-06T05:28:32.578Z,1008.17
2019-02-06T05:29:32.601Z,1008.21
2019-02-06T05:30:32.623Z,1008.15
2019-02-06T05:31:32.644Z,1008.20
2019-02-06T05:32:32.665Z,1008.20
2019-02-06T05:33:32.687Z,1008.17
2019-02-06T05:34:32.708Z,1008.15
2019-02-06T05:35:32.730Z,1008.20
2019-02-06T05:36:32.755Z,1008.20
2019-02-06T05:37:32.776Z,1008.18
2019-02-06T05:38:32.793Z,1008.20
2019-02-06T05:39:32.816Z,1008.25
2019-02-06T05:40:32.879Z,1008.23
2019-02-06T05:41:32.857Z,1008.26
2019-02-06T05:42:32.880Z,1008.30
2019-02-06T05:43:32.901Z,1008.29
2019-02-06T05:44:32.927Z,1008.31
2019-02-06T05:45:32.950Z,1008.24
2019-02-06T05:46:32.965Z,1008.31
2019-02-06T05:47:32.989Z,1008.33
2019-02-06T05:48:33.010Z,1008.32
2019-02-06T05:49:33.028Z,1008.35
2019-02-06T05:50:33.051Z,1008.30
2019-02-06T05:51:33.078Z,1008.34
2019-02-06T05:52:33.116Z,1008.39
2019-02-06T05:53:33.116Z,1008.35
2019-02-06T05:54:33.137Z,1008.37
2019-02-06T05:55:33.157Z,1008.37
2019-02-06T05:56:33.178Z,1008.35
2019-02-06T05:57:33.201Z,1008.40
2019-02-06T05:58:33.221Z,1008.39
2019-02-06T05:59:33.246Z,1008.31
2019-02-06T06:00:33.265Z,1008.36
2019-02-06T06:01:33.290Z,1008.36
2019-02-06T06:02:33.308Z,1008.36
2019-02-06T06:03:33.330Z,1008.36
2019-02-06T06:04:33.350Z,1008.33
2019-02-06T06:05:33.371Z,1008.34
2019-02-06T06:06:33.394Z,1008.36
2019-02-06T06:07:44.490Z,1008.35
2019-02-06T06:08:33.435Z,1008.34
2019-02-06T06:09:33.457Z,1008.38
2019-02-06T06:10:33.480Z,1008.38
2019-02-06T06:11:33.500Z,1008.38
2019-02-06T06:12:33.522Z,1008.41
2019-02-06T06:13:33.543Z,1008.37
2019-02-06T06:14:33.572Z,1008.38
2019-02-06T06:15:33.586Z,1008.40
2019-02-06T06:16:33.606Z,1008.37
2019-02-06T06:17:33.628Z,1008.46
2019-02-06T06:18:33.652Z,1008.39
2019-02-06T06:19:33.672Z,1008.39
2019-02-06T06:20:33.691Z,1008.41
2019-02-06T06:21:33.714Z,1008.37
2019-02-06T06:22:33.840Z,1008.45
2019-02-06T06:23:33.757Z,1008.40
2019-02-06T06:24:33.779Z,1008.42
2019-02-06T06:25:33.800Z,1008.43
2019-02-06T06:26:33.821Z,1008.37
2019-02-06T06:27:33.843Z,1008.42
2019-02-06T06:28:33.866Z,1008.41
2019-02-06T06:29:33.885Z,1008.43
2019-02-06T06:30:33.906Z,1008.43
2019-02-06T06:31:33.929Z,1008.42
2019-02-06T06:32:33.948Z,1008.34
2019-02-06T06:33:33.971Z,1008.40
2019-02-06T06:34:33.993Z,1008.42
2019-02-06T06:35:34.013Z,1008.43
2019-02-06T06:36:34.036Z,1008.39
2019-02-06T06:37:34.056Z,1008.41
2019-02-06T06:38:34.079Z,1008.44
2019-02-06T06:39:34.098Z,1008.42
2019-02-06T06:40:34.119Z,1008.46
2019-02-06T06:41:34.144Z,1008.45
2019-02-06T06:42:34.163Z,1008.43
2019-02-06T06:43:34.184Z,1008.46
2019-02-06T06:44:34.204Z,1008.42
2019-02-06T06:45:34.226Z,1008.39
2019-02-06T06:46:34.248Z,1008.37
2019-02-06T06:47:34.268Z,1008.39
2019-02-06T06:48:34.292Z,1008.34
2019-02-06T06:49:34.316Z,1008.41
2019-02-06T06:50:34.334Z,1008.39
2019-02-06T06:51:34.354Z,1008.37
2019-02-06T06:52:34.374Z,1008.40
2019-02-06T06:53:34.396Z,1008.44
2019-02-06T06:54:34.532Z,1008.45
2019-02-06T06:55:35.204Z,1008.45
2019-02-06T06:56:34.461Z,1008.42
2019-02-06T06:57:34.482Z,1008.48
2019-02-06T06:58:34.504Z,1008.42
2019-02-06T06:59:34.564Z,1008.48
2019-02-06T07:00:34.545Z,1008.45
2019-02-06T07:01:34.567Z,1008.45
2019-02-06T07:02:34.588Z,1008.51
2019-02-06T07:03:34.611Z,1008.46
2019-02-06T07:04:34.631Z,1008.46
2019-02-06T07:05:34.652Z,1008.54
2019-02-06T07:06:34.674Z,1008.56
2019-02-06T07:07:34.700Z,1008.53
2019-02-06T07:08:34.716Z,1008.59
2019-02-06T07:09:34.739Z,1008.55
2019-02-06T07:10:34.759Z,1008.57
2019-02-06T07:11:34.783Z,1008.55
2019-02-06T07:12:34.802Z,1008.60
2019-02-06T07:13:34.825Z,1008.59
2019-02-06T07:14:34.845Z,1008.59
2019-02-06T07:15:34.866Z,1008.57
2019-02-06T07:16:34.888Z,1008.58
2019-02-06T07:17:34.909Z,1008.63
2019-02-06T07:18:34.931Z,1008.64
2019-02-06T07:19:35.049Z,1008.64
2019-02-06T07:20:34.990Z,1008.56
2019-02-06T07:21:34.995Z,1008.60
2019-02-06T07:22:35.017Z,1008.56
2019-02-06T07:23:35.038Z,1008.60
2019-02-06T07:24:35.061Z,1008.55
2019-02-06T07:25:35.082Z,1008.55
2019-02-06T07:26:35.103Z,1008.52
2019-02-06T07:27:35.125Z,1008.56
2019-02-06T07:28:35.147Z,1008.53
2019-02-06T07:29:35.167Z,1008.55
2019-02-06T07:30:35.192Z,1008.58
2019-02-06T07:31:35.213Z,1008.55
2019-02-06T07:32:36.390Z,1008.61
2019-02-06T07:33:35.255Z,1008.61
2019-02-06T07:34:35.327Z,1008.69
2019-02-06T07:35:35.299Z,1008.66
2019-02-06T07:36:35.320Z,1008.66
2019-02-06T07:37:35.342Z,1008.63
2019-02-06T07:38:35.366Z,1008.59
2019-02-06T07:39:35.388Z,1008.61
2019-02-06T07:40:35.408Z,1008.59
2019-02-06T07:41:35.432Z,1008.63
2019-02-06T07:42:35.454Z,1008.70
2019-02-06T07:43:35.476Z,1008.75
2019-02-06T07:44:35.498Z,1008.76
2019-02-06T07:45:35.521Z,1008.82
2019-02-06T07:46:35.543Z,1008.75
2019-02-06T07:47:35.566Z,1008.82
2019-02-06T07:48:35.587Z,1008.81
2019-02-06T07:49:35.613Z,1008.83
2019-02-06T07:50:35.633Z,1008.85
2019-02-06T07:51:35.656Z,1008.82
2019-02-06T07:52:35.679Z,1008.82
2019-02-06T07:53:35.703Z,1008.71
2019-02-06T07:54:35.725Z,1008.76
2019-02-06T07:55:35.748Z,1008.75
2019-02-06T07:56:35.771Z,1008.77
2019-02-06T07:57:35.795Z,1008.79
2019-02-06T07:58:35.819Z,1008.77
2019-02-06T07:59:35.842Z,1008.78
2019-02-06T08:00:35.866Z,1008.76
2019-02-06T08:01:35.889Z,1008.71
2019-02-06T08:02:35.913Z,1008.74
2019-02-06T08:03:35.940Z,1008.79
2019-02-06T08:04:35.961Z,1008.78
2019-02-06T08:05:35.987Z,1008.76
2019-02-06T08:06:36.010Z,1008.74
2019-02-06T08:07:36.035Z,1008.74
2019-02-06T08:08:36.529Z,1008.72
2019-02-06T08:09:36.083Z,1008.72
2019-02-06T08:10:36.108Z,1008.77
2019-02-06T08:11:36.133Z,1008.74
2019-02-06T08:12:36.156Z,1008.74
2019-02-06T08:13:36.181Z,1008.72
2019-02-06T08:14:36.206Z,1008.70
2019-02-06T08:15:36.231Z,1008.65
2019-02-06T08:16:36.257Z,1008.66
2019-02-06T08:17:36.282Z,1008.66
2019-02-06T08:18:36.308Z,1008.72
2019-02-06T08:19:36.334Z,1008.79
2019-02-06T08:20:36.357Z,1008.84
2019-02-06T08:21:36.384Z,1008.85
2019-02-06T08:22:36.410Z,1008.85
2019-02-06T08:23:36.436Z,1008.86
2019-02-06T08:24:36.490Z,1008.84
2019-02-06T08:25:36.487Z,1008.86
2019-02-06T08:26:36.538Z,1008.89
2019-02-06T08:27:36.543Z,1008.87
2019-02-06T08:28:36.570Z,1008.85
2019-02-06T08:29:36.593Z,1008.82
2019-02-06T08:30:36.621Z,1008.88
2019-02-06T08:31:36.646Z,1008.89
2019-02-06T08:32:38.054Z,1008.83
2019-02-06T08:33:36.699Z,1008.85
2019-02-06T08:34:36.728Z,1008.83
2019-02-06T08:35:36.757Z,1008.72
2019-02-06T08:36:36.782Z,1008.82
2019-02-06T08:37:36.810Z,1008.80
2019-02-06T08:38:47.330Z,1008.75
2019-02-06T08:39:36.865Z,1008.81
2019-02-06T08:40:36.896Z,1008.75
2019-02-06T08:41:36.920Z,1008.67
2019-02-06T08:42:36.948Z,1008.62
2019-02-06T08:43:36.980Z,1008.68
2019-02-06T08:44:37.007Z,1008.66
2019-02-06T08:45:37.034Z,1008.60
2019-02-06T08:46:37.064Z,1008.62
2019-02-06T08:47:37.091Z,1008.53
2019-02-06T08:48:37.119Z,1008.60
2019-02-06T08:49:37.148Z,1008.70
2019-02-06T08:50:37.177Z,1008.74
2019-02-06T08:51:37.205Z,1008.66
2019-02-06T08:52:37.233Z,1008.78
2019-02-06T08:53:37.262Z,1008.81
2019-02-06T08:54:37.292Z,1008.80
2019-02-06T08:55:37.322Z,1008.84
2019-02-06T08:56:37.352Z,1008.73
2019-02-06T08:57:37.380Z,1008.52
2019-02-06T08:58:37.411Z,1008.60
2019-02-06T08:59:37.440Z,1008.51
2019-02-06T09:00:37.469Z,1008.58
2019-02-06T09:01:37.500Z,1008.56
2019-02-06T09:02:37.533Z,1008.58
2019-02-06T09:03:37.560Z,1008.66
2019-02-06T09:04:37.591Z,1008.81
2019-02-06T09:05:37.620Z,1008.75
2019-02-06T09:06:37.650Z,1008.83
2019-02-06T09:07:37.682Z,1008.79
2019-02-06T09:08:37.712Z,1008.76
2019-02-06T09:09:37.743Z,1008.69
2019-02-06T09:10:37.774Z,1008.77
2019-02-06T09:11:37.807Z,1008.65
2019-02-06T09:12:37.836Z,1008.64
2019-02-06T09:13:37.867Z,1008.71
2019-02-06T09:14:37.903Z,1008.78
2019-02-06T09:15:37.931Z,1008.75
2019-02-06T09:16:37.961Z,1008.76
2019-02-06T09:17:37.994Z,1008.83
2019-02-06T09:18:38.024Z,1008.76
2019-02-06T09:19:38.059Z,1008.80
2019-02-06T09:20:38.088Z,1008.68
2019-02-06T09:21:38.122Z,1008.72
2019-02-06T09:22:38.153Z,1008.81
2019-02-06T09:23:38.199Z,1008.87
2019-02-06T09:24:38.218Z,1008.93
2019-02-06T09:25:38.251Z,1008.82
2019-02-06T09:26:38.286Z,1008.75
2019-02-06T09:27:38.318Z,1008.83
2019-02-06T09:28:38.351Z,1008.79
2019-02-06T09:29:38.383Z,1008.83
2019-02-06T09:30:38.420Z,1008.85
2019-02-06T09:31:38.451Z,1008.83
2019-02-06T09:32:38.482Z,1008.91
2019-02-06T09:33:38.523Z,1008.84
2019-02-06T09:34:38.553Z,1008.89
2019-02-06T09:35:38.586Z,1008.83
2019-02-06T09:36:38.621Z,1008.83
2019-02-06T09:37:38.655Z,1008.75
2019-02-06T09:38:38.691Z,1008.76
2019-02-06T09:39:38.726Z,1008.67
2019-02-06T09:40:38.760Z,1008.64
2019-02-06T09:41:38.808Z,1008.60
2019-02-06T09:42:38.832Z,1008.67
2019-02-06T09:43:38.868Z,1008.52
2019-02-06T09:44:38.907Z,1008.47
2019-02-06T09:45:38.938Z,1008.66
2019-02-06T09:46:38.976Z,1008.73
2019-02-06T09:47:39.011Z,1008.70
2019-02-06T09:48:39.046Z,1008.74
2019-02-06T09:49:41.614Z,1008.76
2019-02-06T09:50:39.120Z,1008.67
2019-02-06T09:51:39.153Z,1008.72
2019-02-06T09:52:39.192Z,1008.70
2019-02-06T09:53:39.227Z,1008.73
2019-02-06T09:54:39.264Z,1008.76
2019-02-06T09:55:39.300Z,1008.68
2019-02-06T09:56:39.336Z,1008.54
2019-02-06T09:57:39.373Z,1008.57
2019-02-06T09:58:42.816Z,1008.49
2019-02-06T09:59:39.448Z,1008.60
2019-02-06T10:00:39.483Z,1008.59
2019-02-06T10:01:39.526Z,1008.53
2019-02-06T10:02:39.556Z,1008.17
2019-02-06T10:03:39.595Z,1008.37
2019-02-06T10:04:39.630Z,1008.40
2019-02-06T10:05:39.754Z,1008.57
2019-02-06T10:06:39.704Z,1008.32
2019-02-06T10:07:39.742Z,1008.44
2019-02-06T10:08:39.777Z,1008.40
2019-02-06T10:09:39.813Z,1008.44
2019-02-06T10:10:39.853Z,1008.39
2019-02-06T10:11:39.888Z,1008.32
2019-02-06T10:12:39.923Z,1008.27
2019-02-06T10:13:39.961Z,1008.14
2019-02-06T10:14:39.996Z,1008.28
2019-02-06T10:15:40.035Z,1008.25
2019-02-06T10:16:40.071Z,1008.24
2019-02-06T10:17:40.106Z,1008.36
2019-02-06T10:18:40.144Z,1008.53
2019-02-06T10:19:42.397Z,1008.58
2019-02-06T10:20:40.217Z,1008.69
2019-02-06T10:21:40.258Z,1008.61
2019-02-06T10:22:40.290Z,1008.67
2019-02-06T10:23:40.327Z,1008.65
2019-02-06T10:24:40.363Z,1008.56
2019-02-06T10:25:40.403Z,1008.41
2019-02-06T10:26:40.438Z,1008.42
2019-02-06T10:27:40.477Z,1008.34
2019-02-06T10:28:40.514Z,1008.47
2019-02-06T10:29:40.551Z,1008.35
2019-02-06T10:30:40.591Z,1008.45
2019-02-06T10:31:40.625Z,1008.35
2019-02-06T10:32:40.663Z,1008.52
2019-02-06T10:33:40.700Z,1008.46
2019-02-06T10:34:40.737Z,1008.60
2019-02-06T10:35:40.775Z,1008.59
2019-02-06T10:36:40.812Z,1008.53
2019-02-06T10:37:40.850Z,1008.39
2019-02-06T10:38:40.889Z,1008.36
2019-02-06T10:39:40.927Z,1008.27
2019-02-06T10:40:41.031Z,1008.12
2019-02-06T10:41:40.998Z,1008.04
2019-02-06T10:42:41.038Z,1007.92
2019-02-06T10:43:41.182Z,1007.89
2019-02-06T10:44:41.113Z,1007.91
2019-02-06T10:45:41.156Z,1008.07
2019-02-06T10:46:41.189Z,1008.25
2019-02-06T10:47:41.226Z,1008.51
2019-02-06T10:48:43.783Z,1008.62
2019-02-06T10:49:41.298Z,1008.67
2019-02-06T10:50:41.336Z,1008.67
2019-02-06T10:51:41.374Z,1008.71
2019-02-06T10:52:41.410Z,1008.70
2019-02-06T10:53:41.446Z,1008.65
2019-02-06T10:54:41.487Z,1008.61
2019-02-06T10:55:41.524Z,1008.45
2019-02-06T10:56:41.604Z,1008.32
2019-02-06T10:57:41.598Z,1008.35
2019-02-06T10:58:41.637Z,1008.22
2019-02-06T10:59:41.676Z,1008.30
2019-02-06T11:00:41.714Z,1008.32
2019-02-06T11:01:41.752Z,1008.32
2019-02-06T11:02:41.843Z,1008.47
2019-02-06T11:03:41.832Z,1008.58
2019-02-06T11:04:41.870Z,1008.53
2019-02-06T11:05:41.908Z,1008.49
2019-02-06T11:06:41.949Z,1008.36
2019-02-06T11:07:41.987Z,1008.34
2019-02-06T11:08:42.026Z,1008.28
2019-02-06T11:09:46.064Z,1008.32
2019-02-06T11:10:42.105Z,1008.41
2019-02-06T11:11:42.147Z,1008.40
2019-02-06T11:12:42.185Z,1008.40
2019-02-06T11:13:42.226Z,1008.40
2019-02-06T11:14:42.266Z,1008.33
2019-02-06T11:15:42.308Z,1008.34
2019-02-06T11:16:42.346Z,1008.31
2019-02-06T11:17:42.387Z,1008.32
2019-02-06T11:18:44.522Z,1008.27
2019-02-06T11:19:43.130Z,1008.26
2019-02-06T11:20:42.508Z,1008.23
2019-02-06T11:21:42.549Z,1008.26
2019-02-06T11:22:42.590Z,1008.24
2019-02-06T11:23:42.632Z,1008.18
2019-02-06T11:24:42.671Z,1008.15
2019-02-06T11:25:42.712Z,1008.12
2019-02-06T11:26:42.764Z,1008.11
2019-02-06T11:27:42.798Z,1008.12
2019-02-06T11:28:42.837Z,1008.10
2019-02-06T11:29:42.877Z,1008.03
2019-02-06T11:30:42.920Z,1008.02
2019-02-06T11:31:42.961Z,1008.02
2019-02-06T11:32:43.003Z,1008.03
2019-02-06T11:33:43.045Z,1008.01
2019-02-06T11:34:43.088Z,1008.01
2019-02-06T11:35:43.129Z,1007.99
2019-02-06T11:36:43.171Z,1008.07
2019-02-06T11:37:43.214Z,1008.01
2019-02-06T11:38:43.256Z,1008.03
2019-02-06T11:39:43.302Z,1007.98
2019-02-06T11:40:43.339Z,1007.94
2019-02-06T11:41:43.383Z,1007.98
2019-02-06T11:42:43.425Z,1007.92
2019-02-06T11:43:43.469Z,1007.89
2019-02-06T11:44:43.510Z,1007.90
2019-02-06T11:45:43.553Z,1007.96
2019-02-06T11:46:43.597Z,1008.03
2019-02-06T11:47:43.640Z,1007.94
2019-02-06T11:48:43.681Z,1007.96
2019-02-06T11:49:43.725Z,1007.83
2019-02-06T11:50:43.768Z,1007.83
2019-02-06T11:51:43.810Z,1007.79
2019-02-06T11:52:43.853Z,1007.80
2019-02-06T11:53:43.925Z,1007.82
2019-02-06T11:54:43.938Z,1007.73
2019-02-06T11:55:43.982Z,1007.75
2019-02-06T11:56:44.024Z,1007.73
2019-02-06T11:57:44.066Z,1007.87
2019-02-06T11:58:44.109Z,1007.81
2019-02-06T11:59:44.152Z,1007.75
2019-02-06T12:00:44.194Z,1007.80
2019-02-06T12:01:44.237Z,1007.73
2019-02-06T12:02:44.280Z,1007.66
2019-02-06T12:03:44.324Z,1007.69
2019-02-06T12:04:44.367Z,1007.86
2019-02-06T12:05:44.411Z,1007.86